Time;durP1;ratioP1;P1;durP2;ratioP2;P2;SDS_P1;SDS_P2;PMS_P1;PMS_P2;Temp;Humidity;BMP_temperature;BMP_pressure;BME280_temperature;BME280_humidity;BME280_pressure;Samples;Min_cycle;Max_cycle;Signal;HPM_P1;HPM_P2
2021/05/31 00:01:29;;;;;;;4.60;2.97;;;10.80;99.90;;;9.26;78.70;102030.75;3519044;40;102300;-41
2021/05/31 00:03:57;;;;;;;4.95;2.80;;;10.70;99.90;;;9.21;79.44;102039.44;3519130;40;102612;-41
2021/05/31 00:06:24;;;;;;;5.38;3.42;;;10.70;99.90;;;9.14;79.28;102033.00;3518920;40;102511;-41
2021/05/31 00:08:52;;;;;;;4.72;2.90;;;10.60;99.90;;;9.09;79.61;102032.66;3519223;40;102356;-41
2021/05/31 00:11:20;;;;;;;4.28;2.70;;;10.60;99.90;;;9.03;79.50;102035.06;3518300;40;102144;-41
2021/05/31 00:13:48;;;;;;;5.68;3.20;;;10.50;99.90;;;9.00;79.87;102031.81;3519023;40;103412;-41
2021/05/31 00:16:16;;;;;;;7.88;3.40;;;10.50;99.90;;;8.97;79.64;102027.56;3519293;40;102683;-41
2021/05/31 00:18:43;;;;;;;7.25;3.22;;;10.50;99.90;;;8.98;80.12;102029.25;3519054;40;102896;-41
2021/05/31 00:21:11;;;;;;;5.00;3.05;;;10.50;99.90;;;8.97;79.74;102022.13;3519213;40;102224;-41
2021/05/31 00:23:39;;;;;;;6.68;3.40;;;10.40;99.90;;;8.93;79.69;102020.75;3518625;40;102441;-41
2021/05/31 00:26:07;;;;;;;4.07;2.60;;;10.50;99.90;;;8.90;79.59;102027.41;3518968;40;102426;-41
2021/05/31 00:28:36;;;;;;;5.75;3.00;;;10.40;99.90;;;8.87;79.85;102016.03;3518505;40;103540;-41
2021/05/31 00:31:04;;;;;;;5.25;2.92;;;10.40;99.90;;;8.82;80.21;102021.13;3519470;40;102404;-41
2021/05/31 00:33:31;;;;;;;4.65;2.88;;;10.30;99.90;;;8.82;80.17;102021.97;3518536;40;103270;-41
2021/05/31 00:35:59;;;;;;;4.13;2.57;;;10.30;99.90;;;8.74;79.86;102013.81;3520204;40;102339;-41
2021/05/31 00:38:26;;;;;;;5.38;2.75;;;10.30;99.90;;;8.71;80.21;102014.16;3520061;40;102177;-41
2021/05/31 00:40:54;;;;;;;5.18;3.05;;;10.20;99.90;;;8.69;80.28;102013.50;3510998;40;102375;-41
2021/05/31 00:43:21;;;;;;;4.60;3.08;;;10.20;99.90;;;8.67;80.61;102020.97;3519833;40;103163;-41
2021/05/31 00:45:49;;;;;;;4.93;2.90;;;10.20;99.90;;;8.63;80.98;102012.28;3510789;40;102226;-41
2021/05/31 00:48:16;;;;;;;4.53;2.85;;;10.20;99.90;;;8.61;80.81;102023.34;3519076;40;102324;-41
2021/05/31 00:50:44;;;;;;;4.82;3.00;;;10.20;99.90;;;8.58;80.91;102017.41;3511179;40;102343;-41
2021/05/31 00:53:12;;;;;;;4.93;2.90;;;10.10;99.90;;;8.54;80.91;102016.03;3519863;40;103180;-41
2021/05/31 00:55:39;;;;;;;5.40;3.10;;;10.10;99.90;;;8.47;80.96;102013.94;3519829;40;102350;-41
2021/05/31 00:58:07;;;;;;;6.22;3.15;;;10.00;99.90;;;8.47;80.94;102016.66;3519906;40;102219;-40
2021/05/31 01:00:37;;;;;;;4.50;2.85;;;10.00;99.90;;;8.45;81.12;102029.59;3519963;40;102591;-41
2021/05/31 01:03:05;;;;;;;5.47;2.97;;;10.00;99.90;;;8.41;80.92;102022.78;3520305;40;102316;-41
2021/05/31 01:05:33;;;;;;;4.57;2.90;;;9.90;99.90;;;8.37;80.84;102023.31;3519745;40;102446;-41
2021/05/31 01:08:07;;;;;;;4.50;2.58;;;9.90;99.90;;;8.33;80.91;102020.06;3520188;40;103225;-41
2021/05/31 01:10:53;;;;;;;5.05;2.92;;;9.90;99.90;;;8.26;80.81;102009.00;3511528;40;103039;-40
2021/05/31 01:13:54;;;;;;;6.93;2.72;;;9.80;99.90;;;8.23;80.92;102019.38;3519016;40;103472;-40
2021/05/31 01:16:33;;;;;;;4.75;2.95;;;9.80;99.90;;;8.18;80.90;102015.28;3520073;40;102187;-41
2021/05/31 01:19:12;;;;;;;4.38;2.88;;;9.70;99.90;;;8.14;81.30;102013.91;3518977;40;103076;-41
2021/05/31 01:22:10;;;;;;;5.30;2.92;;;9.70;99.90;;;8.10;81.81;102014.44;3519817;40;102430;-40
2021/05/31 01:24:51;;;;;;;5.47;3.25;;;9.60;99.90;;;8.07;81.79;102012.91;3519167;40;102175;-40
2021/05/31 01:27:20;;;;;;;6.10;3.35;;;9.60;99.90;;;8.04;81.98;102016.78;3519679;40;102438;-41
2021/05/31 01:30:00;;;;;;;5.82;3.20;;;9.60;99.90;;;8.03;81.87;102008.81;3520505;40;103969;-41
2021/05/31 01:32:36;;;;;;;7.25;3.88;;;9.60;99.90;;;8.03;82.29;102014.25;3520491;40;104151;-40
2021/05/31 01:35:10;;;;;;;6.07;2.95;;;9.60;99.90;;;8.01;81.97;102010.84;3519364;40;102142;-40
2021/05/31 01:37:42;;;;;;;5.38;3.00;;;9.50;99.90;;;7.95;81.97;102006.91;3519667;40;102323;-41
2021/05/31 01:40:12;;;;;;;5.25;2.92;;;9.50;99.90;;;7.94;82.24;102015.22;3510555;40;102183;-40
2021/05/31 01:42:41;;;;;;;5.03;3.10;;;9.50;99.90;;;7.90;82.43;102015.56;3519508;40;102396;-41
2021/05/31 01:45:12;;;;;;;5.22;2.92;;;9.40;99.90;;;7.87;82.20;102013.19;3519205;40;102283;-40
2021/05/31 01:47:42;;;;;;;4.93;3.15;;;9.40;99.90;;;7.84;82.24;102010.78;3519750;40;102648;-41
2021/05/31 01:50:13;;;;;;;6.35;3.40;;;9.40;99.90;;;7.83;82.45;102006.38;3518970;40;102749;-41
2021/05/31 01:52:46;;;;;;;4.82;2.97;;;9.40;99.90;;;7.83;82.20;102010.97;3518586;40;102439;-41
2021/05/31 01:55:15;;;;;;;4.82;2.97;;;9.40;99.90;;;7.81;82.28;102002.97;3519492;40;102304;-41
2021/05/31 01:57:46;;;;;;;6.47;3.30;;;9.40;99.90;;;7.80;82.34;102001.28;3520167;40;103181;-41
2021/05/31 02:00:18;;;;;;;4.60;2.97;;;9.40;99.90;;;7.79;82.49;102002.28;3519781;40;102173;-41
2021/05/31 02:02:50;;;;;;;5.53;2.92;;;9.30;99.90;;;7.75;82.41;101999.03;3510895;40;102667;-41
2021/05/31 02:05:18;;;;;;;4.68;2.92;;;9.30;99.90;;;7.73;82.17;102000.25;3518534;40;103135;-41
2021/05/31 02:07:46;;;;;;;4.30;3.03;;;9.30;99.90;;;7.71;82.36;102002.28;3519453;40;102409;-41
2021/05/31 02:10:15;;;;;;;5.43;3.10;;;9.20;99.90;;;7.68;82.26;101999.84;3518414;40;102806;-41
2021/05/31 02:12:59;;;;;;;5.13;3.00;;;9.20;99.90;;;7.63;82.53;101997.66;3510040;40;102767;-41
2021/05/31 02:15:48;;;;;;;5.30;3.17;;;9.20;99.90;;;7.62;82.39;101991.38;3519500;40;102275;-41
2021/05/31 02:18:37;;;;;;;4.72;2.88;;;9.20;99.90;;;7.57;82.48;101993.72;3644211;22;104017;-40
2021/05/31 02:21:15;;;;;;;6.07;3.10;;;9.10;99.90;;;7.53;82.52;101996.91;3509653;40;103072;-40
2021/05/31 02:23:44;;;;;;;7.07;3.30;;;9.10;99.90;;;7.50;82.72;101987.25;3516525;40;102353;-40
2021/05/31 02:26:17;;;;;;;6.20;2.92;;;9.00;99.90;;;7.45;83.02;101984.19;3500826;40;103087;-40
2021/05/31 02:28:47;;;;;;;5.72;3.47;;;9.00;99.90;;;7.42;83.14;101979.91;3509664;40;103343;-42
2021/05/31 02:31:17;;;;;;;6.32;3.38;;;9.00;99.90;;;7.41;83.43;101982.78;3510024;40;102079;-41
2021/05/31 02:33:48;;;;;;;4.57;3.10;;;9.00;99.90;;;7.39;83.39;101982.09;3508331;40;102403;-41
2021/05/31 02:36:17;;;;;;;5.22;3.10;;;8.90;99.90;;;7.38;83.58;101977.69;3509747;40;103198;-40
2021/05/31 02:38:46;;;;;;;5.15;3.20;;;8.90;99.90;;;7.36;83.45;101985.16;3516946;40;103033;-39
2021/05/31 02:41:13;;;;;;;5.88;3.03;;;8.90;99.90;;;7.36;83.63;101990.56;3509580;40;103186;-43
2021/05/31 02:43:41;;;;;;;5.13;3.13;;;8.90;99.90;;;7.36;83.68;101985.16;3508665;40;102372;-40
2021/05/31 02:46:09;;;;;;;;;;;8.90;99.90;;;7.33;83.88;101991.78;3510494;40;102177;-40
2021/05/31 02:48:36;;;;;;;7.28;3.55;;;8.90;99.90;;;7.32;83.83;101987.34;3508557;40;102465;-40
2021/05/31 02:51:05;;;;;;;5.13;2.97;;;8.90;99.90;;;7.30;83.89;101990.22;3509486;40;103171;-40
2021/05/31 02:53:33;;;;;;;;;;;8.80;99.90;;;7.27;84.23;101987.81;3509485;40;102325;-39
2021/05/31 02:56:02;;;;;;;4.75;2.80;;;8.80;99.90;;;7.23;84.08;101986.44;3509791;40;102242;-40
2021/05/31 02:58:30;;;;;;;5.68;3.47;;;8.80;99.90;;;7.24;84.29;101982.72;3516577;40;102860;-40
2021/05/31 03:00:57;;;;;;;5.60;3.40;;;8.80;99.90;;;7.20;84.48;101981.34;3509463;40;104062;-40
2021/05/31 03:03:25;;;;;;;5.85;3.17;;;8.70;99.90;;;7.18;84.59;101988.81;3509380;40;102336;-40
2021/05/31 03:05:53;;;;;;;5.10;3.53;;;8.70;99.90;;;7.16;84.89;101982.66;3509465;40;102134;-41
2021/05/31 03:08:21;;;;;;;7.05;3.38;;;8.70;99.90;;;7.11;84.46;101993.16;3509428;40;102088;-43
2021/05/31 03:10:48;;;;;;;4.93;2.90;;;8.70;99.90;;;7.08;84.63;101985.34;3509266;40;103101;-41
2021/05/31 03:13:16;;;;;;;5.15;3.25;;;8.60;99.90;;;7.04;84.86;101982.13;3508341;40;102223;-37
2021/05/31 03:15:46;;;;;;;6.10;3.33;;;8.60;99.90;;;6.99;84.89;101990.72;3509585;40;104036;-41
2021/05/31 03:18:14;;;;;;;7.07;3.25;;;8.60;99.90;;;6.98;85.36;101991.75;3516438;40;102645;-39
2021/05/31 03:20:42;;;;;;;6.45;3.60;;;8.60;99.90;;;6.96;85.25;101987.47;3509620;40;103116;-40
2021/05/31 03:23:09;;;;;;;;;;;8.50;99.90;;;6.94;85.29;101992.22;3517330;40;102394;-40
2021/05/31 03:25:38;;;;;;;5.05;3.00;;;8.50;99.90;;;6.93;85.32;101995.94;3509399;40;103113;-42
2021/05/31 03:28:05;;;;;;;;;;;8.50;99.90;;;6.90;85.20;101991.69;3509929;40;103402;-43
2021/05/31 03:30:33;;;;;;;4.95;3.20;;;8.40;99.90;;;6.89;85.12;101996.25;3509931;40;102104;-40
2021/05/31 03:33:01;;;;;;;6.85;3.55;;;8.40;99.90;;;6.88;85.42;101994.56;3509459;40;102714;-40
2021/05/31 03:35:29;;;;;;;6.43;3.90;;;8.40;99.90;;;6.89;85.46;101995.41;3508149;40;102742;-40
2021/05/31 03:37:57;;;;;;;6.10;3.58;;;8.40;99.90;;;6.89;85.36;102008.97;3509739;40;102090;-39
2021/05/31 03:40:25;;;;;;;6.10;3.38;;;8.40;99.90;;;6.87;85.46;101994.69;3509405;40;102124;-40
2021/05/31 03:42:56;;;;;;;5.28;3.20;;;8.40;99.90;;;6.87;85.70;102009.13;3509302;40;102343;-40
2021/05/31 03:45:24;;;;;;;4.90;3.13;;;8.40;99.90;;;6.86;85.64;102003.84;3508932;40;102099;-39
2021/05/31 03:47:52;;;;;;;5.93;3.17;;;8.40;99.90;;;6.88;85.44;102009.97;3509184;40;102055;-40
2021/05/31 03:50:20;;;;;;;5.25;3.15;;;8.40;99.90;;;6.90;85.62;102002.56;3509766;40;103145;-39
2021/05/31 03:52:49;;;;;;;8.10;3.92;;;8.40;99.90;;;6.89;85.40;102000.81;3509642;40;102376;-40
2021/05/31 03:55:17;;;;;;;4.93;3.00;;;8.40;99.90;;;6.90;85.55;102000.69;3508616;40;103406;-40
2021/05/31 03:57:46;;;;;;;5.93;3.72;;;8.40;99.90;;;6.97;85.97;102002.75;3508395;40;102603;-40
2021/05/31 04:00:16;;;;;;;6.35;3.38;;;8.40;99.90;;;6.98;86.08;102005.31;3509350;40;102103;-40
2021/05/31 04:02:45;;;;;;;5.78;3.75;;;8.50;99.90;;;7.01;86.20;102006.84;3509056;40;102369;-39
2021/05/31 04:05:15;;;;;;;7.00;3.78;;;8.50;99.90;;;7.06;86.42;102007.22;3515629;40;104051;-40
2021/05/31 04:13:04;;;;;;;5.97;3.97;;;8.60;99.90;;;7.22;87.19;102011.91;3509164;40;102249;-40
2021/05/31 04:15:31;;;;;;;6.33;4.17;;;8.70;99.90;;;7.29;87.75;102015.66;3508965;40;102461;-40
2021/05/31 04:17:59;;;;;;;5.28;3.38;;;8.80;99.90;;;7.35;87.83;102011.47;3509058;40;102377;-40
2021/05/31 04:20:27;;;;;;;5.63;3.70;;;8.80;99.90;;;7.41;87.79;102012.66;3509199;40;102303;-40
2021/05/31 04:22:54;;;;;;;5.95;3.88;;;8.90;99.90;;;7.46;87.37;102007.59;3509385;40;103290;-39
2021/05/31 04:25:23;;;;;;;6.35;4.15;;;8.90;99.90;;;7.55;87.51;102006.63;3516188;40;104352;-40
2021/05/31 04:27:51;;;;;;;7.18;4.28;;;9.00;99.90;;;7.63;87.54;102005.81;3508977;40;103285;-40
2021/05/31 04:30:20;;;;;;;8.40;4.40;;;9.00;99.90;;;7.72;87.33;102003.97;3509589;40;104343;-40
2021/05/31 04:32:48;;;;;;;6.68;4.28;;;9.10;99.90;;;7.81;87.27;102005.69;3508998;40;102773;-39
2021/05/31 04:35:16;;;;;;;7.20;4.03;;;9.20;99.90;;;7.91;87.34;102011.00;3508591;40;103039;-40
2021/05/31 04:37:44;;;;;;;6.88;3.70;;;9.30;99.90;;;7.98;87.33;102008.47;3515972;40;102389;-41
2021/05/31 04:40:15;;;;;;;6.07;3.75;;;9.30;99.90;;;8.09;87.19;102007.28;3516061;40;102331;-40
2021/05/31 04:42:42;;;;;;;6.13;3.85;;;9.40;99.90;;;8.19;86.95;102008.81;3515918;40;102470;-43
2021/05/31 04:45:11;;;;;;;6.78;4.03;;;9.60;99.90;;;8.32;86.73;102004.78;3508483;40;103346;-40
2021/05/31 04:47:39;;;;;;;10.10;3.88;;;9.70;99.90;;;8.47;86.40;102000.34;3508769;40;102756;-39
2021/05/31 04:50:08;;;;;;;11.98;3.97;;;9.80;99.90;;;8.63;85.88;101995.97;3508719;40;102265;-39
2021/05/31 04:52:36;;;;;;;7.03;4.15;;;10.00;99.90;;;8.92;85.37;102000.88;3509118;40;102375;-40
2021/05/31 04:55:05;;;;;;;9.07;4.18;;;10.20;99.90;;;9.22;85.65;101997.56;3515738;40;103631;-40
2021/05/31 04:57:32;;;;;;;9.23;4.82;;;10.40;99.90;;;9.55;85.27;102000.19;3508991;40;102422;-40
2021/05/31 05:00:01;;;;;;;;;;;10.70;99.90;;;9.85;85.47;101994.94;3509308;40;103360;-41
2021/05/31 05:02:28;;;;;;;8.18;4.25;;;11.00;99.90;;;10.18;85.18;102002.03;3508961;40;102411;-40
2021/05/31 05:04:55;;;;;;;7.72;4.53;;;11.20;99.90;;;10.47;84.77;102001.34;3508421;40;102120;-40
2021/05/31 05:07:24;;;;;;;8.52;4.80;;;11.50;99.90;;;10.73;83.29;101997.38;3508480;40;102422;-40
2021/05/31 05:09:51;;;;;;;8.75;4.75;;;11.70;99.90;;;11.00;82.21;101999.66;3508453;40;102316;-40
2021/05/31 05:12:19;;;;;;;8.43;4.63;;;12.00;99.90;;;11.26;81.31;102001.09;3508406;40;103574;-40
2021/05/31 05:14:47;;;;;;;;;;;12.30;99.90;;;11.50;80.36;101997.22;3509006;40;102181;-40
2021/05/31 05:17:14;;;;;;;7.68;4.25;;;12.50;99.90;;;11.78;79.15;102002.00;3501266;40;102328;-42
2021/05/31 05:19:41;;;;;;;7.32;4.50;;;12.70;99.90;;;12.03;77.58;102004.41;3510054;40;102279;-40
2021/05/31 05:22:09;;;;;;;7.88;4.90;;;13.00;99.90;;;12.29;77.04;102003.81;3509913;40;102427;-40
2021/05/31 05:24:37;;;;;;;8.88;4.95;;;13.20;99.90;;;12.52;76.63;102008.25;3509916;40;102145;-40
2021/05/31 05:27:05;;;;;;;9.30;4.70;;;13.50;99.90;;;12.73;74.27;102004.66;3509974;40;102301;-40
2021/05/31 05:29:34;;;;;;;7.25;4.55;;;13.70;99.90;;;12.97;74.71;102005.25;3509867;40;102405;-40
2021/05/31 05:32:02;;;;;;;;;;;13.90;99.90;;;13.16;73.10;102011.06;3510785;40;102815;-40
2021/05/31 05:34:30;;;;;;;7.35;4.50;;;14.10;99.90;;;13.32;70.86;101999.78;3510082;40;102870;-40
2021/05/31 05:39:56;;;;;;;7.65;4.15;;;14.50;99.90;;;13.74;70.12;102002.56;3509994;40;103599;-40
2021/05/31 05:45:25;;;;;;;10.35;4.60;;;14.90;99.90;;;14.15;69.24;102000.78;3508234;40;103619;-41
2021/05/31 05:47:53;;;;;;;8.85;4.85;;;15.10;99.90;;;14.31;66.25;102001.41;3509816;40;103309;-40
2021/05/31 05:50:22;;;;;;;7.80;4.40;;;15.30;99.90;;;14.49;67.69;102004.41;3509906;40;102400;-40
2021/05/31 05:52:50;;;;;;;11.60;4.70;;;15.40;99.90;;;14.65;67.02;101997.63;3510319;40;102215;-40
2021/05/31 05:55:18;;;;;;;;;;;15.60;99.90;;;14.76;64.11;101990.69;3517673;40;102318;-41
2021/05/31 05:57:46;;;;;;;9.98;4.47;;;15.70;99.90;;;14.92;64.48;101994.09;3510213;40;102363;-40
2021/05/31 06:00:21;;;;;;;8.20;4.22;;;15.80;99.90;;;15.01;61.89;101990.03;3509797;40;104382;-41
2021/05/31 06:02:50;;;;;;;6.57;4.10;;;16.00;99.90;;;15.20;63.08;101993.81;3509736;40;103441;-40
2021/05/31 06:05:20;;;;;;;9.10;4.55;;;16.10;99.90;;;15.35;62.92;101999.03;3510116;40;103913;-40
2021/05/31 06:07:48;;;;;;;8.65;4.50;;;16.30;99.90;;;15.49;61.47;101996.28;3509901;40;102417;-40
2021/05/31 06:10:18;;;;;;;7.75;4.55;;;16.40;99.90;;;15.57;62.74;101990.50;3516925;40;102315;-40
2021/05/31 06:12:46;;;;;;;9.38;4.80;;;16.60;99.90;;;15.79;62.64;101999.31;3509234;40;102249;-41
2021/05/31 06:15:15;;;;;;;6.97;4.65;;;16.70;99.90;;;16.01;63.76;101998.19;3508616;40;102581;-40
2021/05/31 06:17:44;;;;;;;8.77;4.80;;;16.80;99.90;;;16.20;62.80;102001.88;3510106;40;102273;-40
2021/05/31 06:20:12;;;;;;;10.90;5.00;;;17.00;99.90;;;16.31;59.93;101997.56;3510163;40;103161;-40
2021/05/31 06:22:40;;;;;;;10.20;4.72;;;17.20;99.90;;;16.50;62.30;102001.22;3510053;40;102380;-43
2021/05/31 06:25:11;;;;;;;7.97;4.85;;;17.30;99.90;;;16.63;60.30;101998.38;3516372;40;103210;-41
2021/05/31 06:27:44;;;;;;;7.40;4.60;;;17.50;99.90;;;16.77;59.42;102004.63;3509445;40;102231;-41
2021/05/31 06:30:14;;;;;;;6.45;4.07;;;17.60;99.90;;;16.85;58.85;102002.63;3509849;40;104214;-41
2021/05/31 06:32:42;;;;;;;7.93;4.80;;;17.70;99.90;;;16.97;58.42;101998.06;3509808;40;102322;-41
2021/05/31 06:35:10;;;;;;;7.40;4.40;;;17.80;99.90;;;17.10;58.11;101992.47;3509829;40;103099;-40
2021/05/31 06:37:38;;;;;;;7.25;4.50;;;17.90;99.90;;;17.17;56.47;101997.06;3509923;40;102207;-40
2021/05/31 06:40:11;;;;;;;8.10;4.75;;;18.00;99.90;;;17.23;56.44;101993.38;3510530;40;102805;-42
2021/05/31 06:42:43;;;;;;;8.65;4.20;;;18.10;99.90;;;17.39;56.50;101998.28;3508833;40;104895;-40
2021/05/31 06:45:20;;;;;;;8.15;5.13;;;18.20;99.90;;;17.54;56.30;101999.84;3509856;40;103681;-41
2021/05/31 06:47:50;;;;;;;8.65;4.60;;;18.40;99.90;;;17.71;57.82;101986.25;3510083;40;102377;-40
2021/05/31 06:50:20;;;;;;;7.38;4.20;;;18.50;99.90;;;17.85;57.24;101989.66;3509831;40;104404;-40
2021/05/31 06:52:47;;;;;;;7.13;3.88;;;18.60;99.90;;;17.69;54.17;101989.22;3509603;40;102219;-40
2021/05/31 06:55:17;;;;;;;6.65;4.10;;;18.70;99.90;;;17.88;56.71;101980.91;3509697;40;103082;-41
2021/05/31 06:57:48;;;;;;;7.55;4.22;;;18.70;99.90;;;18.03;54.50;101987.94;3509507;40;102647;-41
2021/05/31 07:00:20;;;;;;;8.15;4.30;;;18.90;99.90;;;18.16;54.42;101985.00;3509985;40;102284;-41
2021/05/31 07:02:48;;;;;;;5.85;4.05;;;19.00;99.90;;;18.37;53.96;101988.31;3510244;40;102378;-41
2021/05/31 07:05:16;;;;;;;7.75;4.63;;;19.10;99.90;;;18.46;54.24;101986.03;3509556;40;102643;-41
2021/05/31 07:07:44;;;;;;;;;;;19.20;99.90;;;18.49;53.04;101980.88;3510681;40;102253;-41
2021/05/31 07:10:15;;;;;;;7.55;3.85;;;19.30;99.90;;;18.57;54.10;101985.22;3510304;40;103160;-41
2021/05/31 07:12:46;;;;;;;7.45;4.22;;;19.30;99.90;;;18.70;53.56;101975.84;3509109;40;102452;-40
2021/05/31 07:15:14;;;;;;;6.60;3.72;;;19.50;99.90;;;18.86;52.47;101982.59;3509619;40;103143;-40
2021/05/31 07:17:42;;;;;;;7.63;4.20;;;19.60;99.90;;;18.96;52.52;101974.53;3509884;40;102551;-41
2021/05/31 07:20:14;;;;;;;7.05;3.70;;;19.70;99.90;;;18.98;51.29;101971.56;3508628;40;102322;-41
2021/05/31 07:22:44;;;;;;;8.45;4.15;;;19.80;99.90;;;19.00;53.52;101972.16;3509627;40;102295;-41
2021/05/31 07:25:16;;;;;;;7.53;3.95;;;19.90;99.90;;;19.11;52.12;101968.53;3509374;40;102275;-41
2021/05/31 07:27:45;;;;;;;6.72;4.15;;;19.90;99.90;;;19.25;51.30;101976.56;3509822;40;103232;-41
2021/05/31 07:30:17;;;;;;;7.07;4.28;;;20.00;99.90;;;19.24;50.75;101975.75;3509760;40;103095;-41
2021/05/31 07:32:46;;;;;;;8.98;3.65;;;20.10;99.90;;;19.24;51.16;101970.22;3509679;40;102350;-42
2021/05/31 07:35:15;;;;;;;6.28;4.03;;;20.10;99.90;;;19.30;51.91;101971.13;3509444;40;104180;-41
2021/05/31 07:37:43;;;;;;;6.72;3.92;;;20.20;99.90;;;19.42;50.58;101965.56;3508707;40;102556;-40
2021/05/31 07:40:15;;;;;;;9.15;4.15;;;20.20;99.90;;;19.41;50.14;101972.19;3509232;40;102286;-43
2021/05/31 07:42:45;;;;;;;7.22;3.70;;;20.20;99.90;;;19.54;51.07;101969.16;3509848;40;103194;-43
2021/05/31 07:45:17;;;;;;;7.10;3.50;;;20.30;99.90;;;19.67;50.64;101965.28;3509647;40;102287;-40
2021/05/31 07:47:47;;;;;;;7.40;3.83;;;20.40;99.90;;;19.81;48.61;101970.50;3510060;40;104520;-39
2021/05/31 07:50:18;;;;;;;6.07;3.90;;;20.50;99.90;;;19.80;50.99;101964.16;3509820;40;103351;-44
2021/05/31 07:52:47;;;;;;;8.57;3.40;;;20.50;99.90;;;19.96;50.03;101965.31;3510141;40;102351;-41
2021/05/31 07:55:17;;;;;;;5.38;3.28;;;20.60;99.90;;;20.12;46.16;101966.41;3509711;40;103202;-41
2021/05/31 07:57:47;;;;;;;6.47;3.22;;;20.70;97.50;;;20.34;47.40;101964.84;3516465;40;102833;-41
2021/05/31 08:00:19;;;;;;;6.18;3.67;;;20.90;98.60;;;20.50;46.65;101969.56;3509851;40;102329;-41
2021/05/31 08:02:50;;;;;;;5.07;3.40;;;21.00;97.50;;;20.62;46.99;101966.69;3509640;40;102938;-38
2021/05/31 08:05:19;;;;;;;6.40;3.40;;;21.20;97.60;;;20.69;44.58;101967.34;3509251;40;103339;-43
2021/05/31 08:07:47;;;;;;;5.53;3.05;;;21.30;95.10;;;20.83;46.77;101959.56;3509640;40;103294;-40
2021/05/31 08:10:18;;;;;;;6.78;3.65;;;21.40;97.20;;;20.90;47.63;101961.31;3509880;40;102343;-40
2021/05/31 08:12:51;;;;;;;5.40;3.35;;;21.50;97.90;;;20.98;44.73;101964.47;3509182;40;102368;-40
2021/05/31 08:15:19;;;;;;;6.68;3.45;;;21.60;95.00;;;21.12;45.76;101961.34;3509370;40;104116;-42
2021/05/31 08:17:47;;;;;;;6.70;3.13;;;21.70;96.00;;;21.13;44.28;101957.47;3516293;40;102350;-41
2021/05/31 08:20:16;;;;;;;5.78;3.15;;;21.70;93.60;;;21.19;45.45;101952.81;3642668;22;104056;-41
2021/05/31 08:22:46;;;;;;;5.43;3.22;;;21.80;95.20;;;21.03;44.48;101951.78;3516342;40;102581;-41
2021/05/31 08:25:16;;;;;;;5.13;3.22;;;21.80;93.90;;;20.87;43.78;101956.28;3518871;40;103633;-41
2021/05/31 08:27:45;;;;;;;6.75;3.00;;;21.80;92.60;;;21.04;47.51;101947.91;3519360;40;102401;-41
2021/05/31 08:30:15;;;;;;;7.40;3.50;;;21.80;96.30;;;21.09;45.31;101948.00;3518877;39;102350;-42
2021/05/31 08:32:43;;;;;;;6.47;3.38;;;21.90;94.70;;;21.08;44.47;101949.91;3525976;39;102405;-41
2021/05/31 08:35:10;;;;;;;;;;;21.90;93.30;;;21.00;45.11;101942.06;3519664;40;104862;-42
2021/05/31 08:37:39;;;;;;;8.43;3.28;;;21.90;94.00;;;21.04;45.69;101945.13;3519339;40;101866;-41
2021/05/31 08:40:10;;;;;;;6.15;3.45;;;21.90;94.00;;;21.00;43.10;101944.81;3519010;39;102470;-42
2021/05/31 08:42:42;;;;;;;7.90;3.45;;;21.90;91.50;;;21.01;46.73;101940.97;3525870;39;102444;-41
2021/05/31 08:45:16;;;;;;;6.50;3.30;;;21.80;95.40;;;21.10;45.76;101947.72;3525731;39;102195;-41
2021/05/31 08:47:48;;;;;;;6.15;3.38;;;21.90;94.30;;;21.22;43.48;101935.69;3519249;39;102357;-41
2021/05/31 08:50:21;;;;;;;4.97;3.15;;;21.90;91.90;;;21.37;47.96;101941.41;3519528;40;104353;-43
2021/05/31 08:52:52;;;;;;;5.47;3.50;;;22.00;95.70;;;21.45;41.78;101936.50;3520566;39;102370;-42
2021/05/31 08:55:24;;;;;;;7.28;3.42;;;22.20;90.20;;;21.53;43.30;101936.06;3518830;40;104099;-43
2021/05/31 08:57:53;;;;;;;7.65;3.30;;;22.20;91.20;;;21.18;43.37;101937.28;3519894;39;102440;-41
2021/05/31 09:00:26;;;;;;;5.03;3.03;;;22.20;91.10;;;21.38;43.46;101929.22;3520172;39;102204;-43
2021/05/31 09:02:59;;;;;;;5.80;3.08;;;22.10;90.80;;;21.31;45.49;101923.03;3527740;39;103208;-41
2021/05/31 09:05:38;;;;;;;5.80;3.70;;;22.20;93.20;;;21.36;43.45;101923.09;3519906;39;102249;-41
2021/05/31 09:08:18;;;;;;;6.90;3.20;;;22.20;90.90;;;21.56;44.80;101913.31;3520501;39;102413;-41
2021/05/31 09:10:56;;;;;;;6.80;3.28;;;22.30;93.00;;;21.69;44.28;101915.69;3519239;39;102381;-41
2021/05/31 09:13:28;;;;;;;7.80;3.03;;;22.40;91.90;;;21.82;41.47;101913.63;3520059;39;102393;-42
2021/05/31 09:16:22;;;;;;;5.60;3.05;;;22.50;88.10;;;22.04;42.28;101907.97;3520164;39;103217;-42
2021/05/31 09:19:03;;;;;;;6.22;3.17;;;22.70;89.60;;;22.21;42.79;101907.84;3518795;40;102475;-41
2021/05/31 09:21:35;;;;;;;5.13;3.13;;;22.80;92.60;;;22.43;42.02;101909.69;3520588;39;102614;-41
2021/05/31 09:24:08;;;;;;;5.88;3.72;;;23.00;89.40;;;21.97;42.18;101902.63;3519963;39;102360;-41
2021/05/31 09:26:52;;;;;;;4.75;2.70;;;22.90;86.30;;;22.13;40.94;101900.84;3520511;40;103212;-41
2021/05/31 09:29:21;;;;;;;6.55;3.85;;;22.90;84.70;;;22.08;40.14;101902.75;3519755;39;102927;-42
2021/05/31 09:32:09;;;;;;;6.35;3.38;;;23.00;82.60;;;21.98;42.97;101895.97;3527144;39;102318;-41
2021/05/31 09:34:37;;;;;;;4.72;3.20;;;22.90;87.90;;;21.99;41.34;101899.63;3519991;39;102323;-40
2021/05/31 09:37:05;;;;;;;6.00;3.13;;;22.80;84.60;;;22.02;43.17;101896.31;3519914;39;102964;-41
2021/05/31 09:39:39;;;;;;;5.22;2.88;;;22.90;88.60;;;22.09;43.24;101896.09;3527028;39;102856;-41
2021/05/31 09:42:13;;;;;;;5.32;2.80;;;22.90;89.60;;;21.86;40.83;101894.47;3519075;40;102341;-41
2021/05/31 09:44:43;;;;;;;4.93;3.00;;;22.80;82.00;;;21.86;42.34;101895.31;3519407;39;102429;-41
2021/05/31 09:47:13;;;;;;;4.47;2.83;;;22.70;85.80;;;21.92;45.03;101890.66;3519793;40;103695;-42
2021/05/31 09:49:41;;;;;;;6.47;2.92;;;22.70;91.20;;;21.90;44.73;101885.34;3519998;39;102414;-44
2021/05/31 09:52:12;;;;;;;;;;;22.60;91.30;;;21.71;40.38;101882.13;3520530;39;102147;-41
2021/05/31 09:54:46;;;;;;;5.90;3.05;;;22.60;82.60;;;21.45;37.88;101878.19;3520302;39;102372;-41
2021/05/31 09:57:28;;;;;;;4.90;2.75;;;22.50;75.40;;;21.41;38.00;101880.69;3520612;39;103346;-43
2021/05/31 10:00:03;;;;;;;4.93;2.58;;;22.40;75.70;;;21.67;37.32;101875.44;3527119;39;102615;-41
2021/05/31 10:02:50;;;;;;;5.50;2.70;;;22.50;73.20;;;21.64;39.62;101878.72;3519116;39;103184;-41
2021/05/31 10:10:39;;;;;;;5.18;2.92;;;22.40;73.00;;;21.57;40.45;101873.34;3519428;39;102256;-41
2021/05/31 10:13:07;;;;;;;5.97;3.30;;;22.50;78.40;;;21.42;40.00;101876.81;3518638;40;102352;-42
2021/05/31 10:15:40;;;;;;;6.47;3.10;;;22.40;76.70;;;21.30;43.45;101876.94;3518885;40;103598;-41
2021/05/31 10:18:13;;;;;;;4.43;2.88;;;22.30;82.10;;;21.68;40.11;101866.81;3519041;40;102502;-41
2021/05/31 10:20:43;;;;;;;6.70;2.90;;;22.50;77.20;;;22.07;38.72;101864.97;3520067;39;102381;-41
2021/05/31 10:23:14;;;;;;;6.45;2.90;;;22.80;75.10;;;22.32;36.24;101858.75;3519392;39;102160;-41
2021/05/31 10:25:51;;;;;;;6.93;2.92;;;23.00;70.70;;;22.67;40.94;101857.31;3520280;39;102986;-42
2021/05/31 10:28:23;;;;;;;6.15;2.97;;;;;;;22.94;36.95;101852.72;3520196;39;103141;-41
2021/05/31 10:30:57;;;;;;;6.25;2.90;;;;;;;22.90;35.77;101852.41;3520074;39;103249;-43
2021/05/31 10:33:26;;;;;;;5.22;2.95;;;;;;;23.01;34.08;101847.72;3519889;40;102698;-41
2021/05/31 10:36:11;;;;;;;5.15;3.00;;;;;;;22.82;34.72;101850.16;3519804;39;102064;-41
2021/05/31 10:38:40;;;;;;;4.10;2.67;;;23.30;81.20;;;23.07;36.48;101856.94;3519604;39;102358;-38
2021/05/31 10:41:16;;;;;;;6.60;3.60;;;;;;;22.82;34.48;101845.44;3519707;39;103226;-42
2021/05/31 10:43:54;;;;;;;5.25;2.90;;;23.90;67.80;;;22.38;37.23;101845.72;3519529;39;104266;-41
2021/05/31 10:46:29;;;;;;;5.72;3.28;;;23.60;66.50;;;21.97;37.43;101849.84;3520670;39;102389;-40